sensor_id;sensor_type;location;lat;lon;timestamp;pressure;altitude;pressure_sealevel;temperature;humidity
48652;BME280;34442;52.362;-1.302;2024-03-08T00:01:47;100206.94;;;6.72;100.00
48652;BME280;34442;52.362;-1.302;2024-03-08T00:04:13;100206.22;;;6.64;100.00
48652;BME280;34442;52.362;-1.302;2024-03-08T00:06:38;100210.16;;;6.68;100.00
48652;BME280;34442;52.362;-1.302;2024-03-08T00:09:05;100204.19;;;6.21;100.00
48652;BME280;34442;52.362;-1.302;2024-03-08T00:11:35;100199.84;;;6.65;100.00
48652;BME280;34442;52.362;-1.302;2024-03-08T00:14:01;100211.25;;;6.88;100.00
48652;BME280;34442;52.362;-1.302;2024-03-08T00:16:29;100199.75;;;6.73;100.00
48652;BME280;34442;52.362;-1.302;2024-03-08T00:18:54;100189.25;;;6.57;100.00
48652;BME280;34442;52.362;-1.302;2024-03-08T00:21:19;100194.50;;;6.35;100.00
48652;BME280;34442;52.362;-1.302;2024-03-08T00:23:45;100190.47;;;6.39;100.00
48652;BME280;34442;52.362;-1.302;2024-03-08T00:26:11;100186.50;;;6.65;100.00
48652;BME280;34442;52.362;-1.302;2024-03-08T00:28:36;100185.47;;;6.66;100.00
48652;BME280;34442;52.362;-1.302;2024-03-08T00:31:02;100186.75;;;6.70;100.00
48652;BME280;34442;52.362;-1.302;2024-03-08T00:33:27;100178.84;;;6.77;100.00
48652;BME280;34442;52.362;-1.302;2024-03-08T00:35:56;100182.25;;;7.07;100.00
48652;BME280;34442;52.362;-1.302;2024-03-08T00:38:21;100171.09;;;7.03;100.00
48652;BME280;34442;52.362;-1.302;2024-03-08T00:40:47;100171.63;;;6.92;100.00
48652;BME280;34442;52.362;-1.302;2024-03-08T00:43:12;100170.25;;;6.81;100.00
48652;BME280;34442;52.362;-1.302;2024-03-08T00:45:38;100161.88;;;6.84;100.00
48652;BME280;34442;52.362;-1.302;2024-03-08T00:48:05;100171.53;;;6.85;100.00
48652;BME280;34442;52.362;-1.302;2024-03-08T00:50:31;100153.63;;;7.01;100.00
48652;BME280;34442;52.362;-1.302;2024-03-08T00:52:56;100155.47;;;7.00;100.00
48652;BME280;34442;52.362;-1.302;2024-03-08T00:55:21;100153.38;;;7.38;100.00
48652;BME280;34442;52.362;-1.302;2024-03-08T00:57:47;100150.69;;;6.95;100.00
48652;BME280;34442;52.362;-1.302;2024-03-08T01:00:13;100148.75;;;6.89;100.00
48652;BME280;34442;52.362;-1.302;2024-03-08T01:02:39;100144.94;;;6.77;100.00
48652;BME280;34442;52.362;-1.302;2024-03-08T01:05:05;100145.22;;;6.67;100.00
48652;BME280;34442;52.362;-1.302;2024-03-08T01:07:36;100142.56;;;7.25;100.00
48652;BME280;34442;52.362;-1.302;2024-03-08T01:10:02;100127.47;;;7.39;100.00
48652;BME280;34442;52.362;-1.302;2024-03-08T01:12:28;100128.56;;;7.02;100.00
48652;BME280;34442;52.362;-1.302;2024-03-08T01:14:54;100122.84;;;7.26;100.00
48652;BME280;34442;52.362;-1.302;2024-03-08T01:17:20;100121.09;;;7.40;100.00
48652;BME280;34442;52.362;-1.302;2024-03-08T01:19:45;100121.81;;;7.27;100.00
48652;BME280;34442;52.362;-1.302;2024-03-08T01:22:11;100110.22;;;7.41;100.00
48652;BME280;34442;52.362;-1.302;2024-03-08T01:24:36;100104.59;;;7.36;100.00
48652;BME280;34442;52.362;-1.302;2024-03-08T01:27:03;100101.06;;;7.29;100.00
48652;BME280;34442;52.362;-1.302;2024-03-08T01:29:28;100092.63;;;7.32;100.00
48652;BME280;34442;52.362;-1.302;2024-03-08T01:31:55;100094.91;;;7.57;100.00
48652;BME280;34442;52.362;-1.302;2024-03-08T01:34:21;100090.34;;;7.51;100.00
48652;BME280;34442;52.362;-1.302;2024-03-08T01:36:48;100088.06;;;7.26;100.00
48652;BME280;34442;52.362;-1.302;2024-03-08T01:39:14;100085.06;;;7.36;100.00
48652;BME280;34442;52.362;-1.302;2024-03-08T01:41:39;100082.84;;;7.39;100.00
48652;BME280;34442;52.362;-1.302;2024-03-08T01:44:05;100085.72;;;7.66;100.00
48652;BME280;34442;52.362;-1.302;2024-03-08T01:46:33;100079.78;;;7.70;100.00
48652;BME280;34442;52.362;-1.302;2024-03-08T01:49:00;100081.94;;;7.54;100.00
48652;BME280;34442;52.362;-1.302;2024-03-08T01:51:26;100072.56;;;7.99;100.00
48652;BME280;34442;52.362;-1.302;2024-03-08T01:53:55;100079.78;;;7.42;100.00
48652;BME280;34442;52.362;-1.302;2024-03-08T01:56:23;100072.59;;;7.71;100.00
48652;BME280;34442;52.362;-1.302;2024-03-08T01:58:49;100070.78;;;7.78;100.00
48652;BME280;34442;52.362;-1.302;2024-03-08T02:01:15;100068.88;;;7.72;100.00
48652;BME280;34442;52.362;-1.302;2024-03-08T02:03:40;100059.94;;;7.93;100.00
48652;BME280;34442;52.362;-1.302;2024-03-08T02:06:11;100057.31;;;8.00;100.00
48652;BME280;34442;52.362;-1.302;2024-03-08T02:08:36;100052.66;;;7.74;100.00
48652;BME280;34442;52.362;-1.302;2024-03-08T02:11:02;100054.88;;;8.05;100.00
48652;BME280;34442;52.362;-1.302;2024-03-08T02:13:28;100051.75;;;7.94;100.00
48652;BME280;34442;52.362;-1.302;2024-03-08T02:15:55;100053.03;;;7.42;100.00
48652;BME280;34442;52.362;-1.302;2024-03-08T02:18:22;100045.47;;;7.53;100.00
48652;BME280;34442;52.362;-1.302;2024-03-08T02:20:54;100038.88;;;7.49;100.00
48652;BME280;34442;52.362;-1.302;2024-03-08T02:23:21;100031.06;;;7.47;100.00
48652;BME280;34442;52.362;-1.302;2024-03-08T02:25:47;100041.72;;;7.19;100.00
48652;BME280;34442;52.362;-1.302;2024-03-08T02:28:13;100020.28;;;7.40;100.00
48652;BME280;34442;52.362;-1.302;2024-03-08T02:30:39;100022.22;;;7.46;100.00
48652;BME280;34442;52.362;-1.302;2024-03-08T02:33:05;100015.97;;;7.39;100.00
48652;BME280;34442;52.362;-1.302;2024-03-08T02:35:32;100008.00;;;7.81;100.00
48652;BME280;34442;52.362;-1.302;2024-03-08T02:37:58;100011.97;;;7.57;100.00
48652;BME280;34442;52.362;-1.302;2024-03-08T02:40:23;100002.66;;;7.81;100.00
48652;BME280;34442;52.362;-1.302;2024-03-08T02:42:49;99992.75;;;7.75;100.00
48652;BME280;34442;52.362;-1.302;2024-03-08T02:45:15;99995.75;;;8.06;100.00
48652;BME280;34442;52.362;-1.302;2024-03-08T02:47:40;99998.59;;;7.50;100.00
48652;BME280;34442;52.362;-1.302;2024-03-08T02:50:07;99990.25;;;7.66;100.00
48652;BME280;34442;52.362;-1.302;2024-03-08T02:52:35;99989.38;;;7.03;100.00
48652;BME280;34442;52.362;-1.302;2024-03-08T02:55:01;99985.97;;;7.44;100.00
48652;BME280;34442;52.362;-1.302;2024-03-08T02:57:27;99978.78;;;7.86;100.00
48652;BME280;34442;52.362;-1.302;2024-03-08T02:59:53;99983.16;;;7.52;100.00
48652;BME280;34442;52.362;-1.302;2024-03-08T03:02:18;99981.94;;;7.55;100.00
48652;BME280;34442;52.362;-1.302;2024-03-08T03:04:44;99974.81;;;7.68;100.00
48652;BME280;34442;52.362;-1.302;2024-03-08T03:07:09;99973.38;;;7.66;100.00
48652;BME280;34442;52.362;-1.302;2024-03-08T03:09:36;99973.69;;;7.50;100.00
48652;BME280;34442;52.362;-1.302;2024-03-08T03:12:01;99964.41;;;7.93;100.00
48652;BME280;34442;52.362;-1.302;2024-03-08T03:14:27;99968.84;;;7.73;100.00
48652;BME280;34442;52.362;-1.302;2024-03-08T03:16:53;99960.06;;;7.44;100.00
48652;BME280;34442;52.362;-1.302;2024-03-08T03:19:19;99953.66;;;7.74;100.00
48652;BME280;34442;52.362;-1.302;2024-03-08T03:21:45;99959.50;;;7.56;100.00
48652;BME280;34442;52.362;-1.302;2024-03-08T03:24:11;99949.88;;;7.61;100.00
48652;BME280;34442;52.362;-1.302;2024-03-08T03:26:38;99940.19;;;7.54;100.00
48652;BME280;34442;52.362;-1.302;2024-03-08T03:29:06;99938.66;;;7.44;100.00
48652;BME280;34442;52.362;-1.302;2024-03-08T03:31:34;99935.22;;;7.51;100.00
48652;BME280;34442;52.362;-1.302;2024-03-08T03:33:59;99939.75;;;7.57;100.00
48652;BME280;34442;52.362;-1.302;2024-03-08T03:36:31;99940.78;;;7.49;100.00
48652;BME280;34442;52.362;-1.302;2024-03-08T03:38:56;99937.59;;;7.74;100.00
48652;BME280;34442;52.362;-1.302;2024-03-08T03:41:35;99930.25;;;7.47;100.00
48652;BME280;34442;52.362;-1.302;2024-03-08T03:44:00;99928.84;;;7.17;100.00
48652;BME280;34442;52.362;-1.302;2024-03-08T03:46:25;99922.13;;;7.69;100.00
48652;BME280;34442;52.362;-1.302;2024-03-08T03:48:52;99925.28;;;7.10;100.00
48652;BME280;34442;52.362;-1.302;2024-03-08T03:51:18;99916.59;;;7.29;100.00
48652;BME280;34442;52.362;-1.302;2024-03-08T03:53:44;99920.03;;;7.23;100.00
48652;BME280;34442;52.362;-1.302;2024-03-08T03:56:09;99920.47;;;6.99;100.00
48652;BME280;34442;52.362;-1.302;2024-03-08T03:58:36;99908.75;;;7.28;100.00
48652;BME280;34442;52.362;-1.302;2024-03-08T04:01:01;99912.50;;;6.77;100.00
48652;BME280;34442;52.362;-1.302;2024-03-08T04:03:29;99899.78;;;7.07;100.00
48652;BME280;34442;52.362;-1.302;2024-03-08T04:05:54;99902.03;;;7.04;100.00
48652;BME280;34442;52.362;-1.302;2024-03-08T04:08:20;99902.56;;;6.92;100.00
48652;BME280;34442;52.362;-1.302;2024-03-08T04:10:45;99895.13;;;7.16;100.00
48652;BME280;34442;52.362;-1.302;2024-03-08T04:13:10;99894.84;;;7.04;100.00
48652;BME280;34442;52.362;-1.302;2024-03-08T04:15:36;99890.31;;;7.05;100.00
48652;BME280;34442;52.362;-1.302;2024-03-08T04:18:03;99891.81;;;7.14;100.00
48652;BME280;34442;52.362;-1.302;2024-03-08T04:20:29;99885.34;;;7.02;100.00
48652;BME280;34442;52.362;-1.302;2024-03-08T04:22:55;99886.16;;;6.95;100.00
48652;BME280;34442;52.362;-1.302;2024-03-08T04:25:21;99875.22;;;7.25;100.00
48652;BME280;34442;52.362;-1.302;2024-03-08T04:27:47;99884.38;;;6.81;100.00
48652;BME280;34442;52.362;-1.302;2024-03-08T04:30:13;99876.06;;;6.97;100.00
48652;BME280;34442;52.362;-1.302;2024-03-08T04:32:39;99872.00;;;7.02;100.00
48652;BME280;34442;52.362;-1.302;2024-03-08T04:35:06;99871.28;;;7.21;100.00
48652;BME280;34442;52.362;-1.302;2024-03-08T04:37:32;99874.41;;;7.25;100.00
48652;BME280;34442;52.362;-1.302;2024-03-08T04:39:57;99874.91;;;6.79;100.00
48652;BME280;34442;52.362;-1.302;2024-03-08T04:42:23;99874.78;;;7.21;100.00
48652;BME280;34442;52.362;-1.302;2024-03-08T04:44:50;99873.41;;;6.97;100.00
48652;BME280;34442;52.362;-1.302;2024-03-08T04:47:15;99872.03;;;7.08;100.00
48652;BME280;34442;52.362;-1.302;2024-03-08T04:49:43;99881.28;;;6.78;100.00
48652;BME280;34442;52.362;-1.302;2024-03-08T04:52:08;99865.44;;;7.04;100.00
48652;BME280;34442;52.362;-1.302;2024-03-08T04:54:34;99873.78;;;6.94;100.00
48652;BME280;34442;52.362;-1.302;2024-03-08T04:56:59;99868.06;;;6.97;100.00
48652;BME280;34442;52.362;-1.302;2024-03-08T04:59:26;99863.78;;;7.03;100.00
48652;BME280;34442;52.362;-1.302;2024-03-08T05:01:52;99865.53;;;7.24;100.00
48652;BME280;34442;52.362;-1.302;2024-03-08T05:04:17;99863.16;;;7.42;100.00
48652;BME280;34442;52.362;-1.302;2024-03-08T05:06:43;99873.16;;;7.27;100.00
48652;BME280;34442;52.362;-1.302;2024-03-08T05:09:08;99858.69;;;7.56;100.00
48652;BME280;34442;52.362;-1.302;2024-03-08T05:11:44;99866.50;;;7.10;100.00
48652;BME280;34442;52.362;-1.302;2024-03-08T05:14:10;99856.28;;;7.68;100.00
48652;BME280;34442;52.362;-1.302;2024-03-08T05:16:36;99862.75;;;7.39;100.00
48652;BME280;34442;52.362;-1.302;2024-03-08T05:19:02;99856.84;;;7.15;100.00
48652;BME280;34442;52.362;-1.302;2024-03-08T05:21:27;99848.00;;;7.08;100.00
48652;BME280;34442;52.362;-1.302;2024-03-08T05:23:54;99852.38;;;7.70;100.00
48652;BME280;34442;52.362;-1.302;2024-03-08T05:26:19;99838.25;;;7.35;100.00
48652;BME280;34442;52.362;-1.302;2024-03-08T05:28:45;99847.91;;;7.36;100.00
48652;BME280;34442;52.362;-1.302;2024-03-08T05:31:20;99843.94;;;7.67;100.00
48652;BME280;34442;52.362;-1.302;2024-03-08T05:33:49;99834.03;;;7.19;100.00
48652;BME280;34442;52.362;-1.302;2024-03-08T05:36:15;99828.88;;;7.11;100.00
48652;BME280;34442;52.362;-1.302;2024-03-08T05:38:43;99831.53;;;7.11;100.00
48652;BME280;34442;52.362;-1.302;2024-03-08T05:41:09;99821.59;;;7.40;100.00
48652;BME280;34442;52.362;-1.302;2024-03-08T05:43:34;99820.59;;;7.47;100.00
48652;BME280;34442;52.362;-1.302;2024-03-08T05:46:00;99812.69;;;6.85;100.00
48652;BME280;34442;52.362;-1.302;2024-03-08T05:48:25;99814.00;;;7.43;100.00
48652;BME280;34442;52.362;-1.302;2024-03-08T05:50:50;99807.56;;;7.31;100.00
48652;BME280;34442;52.362;-1.302;2024-03-08T05:53:16;99808.63;;;6.89;100.00
48652;BME280;34442;52.362;-1.302;2024-03-08T05:55:41;99802.31;;;7.51;100.00
48652;BME280;34442;52.362;-1.302;2024-03-08T05:58:07;99795.25;;;7.30;100.00
48652;BME280;34442;52.362;-1.302;2024-03-08T06:00:33;99789.28;;;7.35;100.00
48652;BME280;34442;52.362;-1.302;2024-03-08T06:02:59;99792.75;;;7.22;100.00
48652;BME280;34442;52.362;-1.302;2024-03-08T06:05:25;99790.22;;;7.68;100.00
48652;BME280;34442;52.362;-1.302;2024-03-08T06:07:50;99792.94;;;6.79;100.00
48652;BME280;34442;52.362;-1.302;2024-03-08T06:10:18;99786.66;;;7.48;100.00
48652;BME280;34442;52.362;-1.302;2024-03-08T06:12:44;99789.63;;;7.12;100.00
48652;BME280;34442;52.362;-1.302;2024-03-08T06:15:10;99790.19;;;7.01;100.00
48652;BME280;34442;52.362;-1.302;2024-03-08T06:17:40;99772.50;;;7.00;100.00
48652;BME280;34442;52.362;-1.302;2024-03-08T06:20:06;99780.56;;;7.13;100.00
48652;BME280;34442;52.362;-1.302;2024-03-08T06:22:39;99772.72;;;7.05;100.00
48652;BME280;34442;52.362;-1.302;2024-03-08T06:25:08;99760.69;;;6.81;100.00
48652;BME280;34442;52.362;-1.302;2024-03-08T06:27:34;99771.31;;;7.15;100.00
48652;BME280;34442;52.362;-1.302;2024-03-08T06:30:02;99772.09;;;7.57;100.00
48652;BME280;34442;52.362;-1.302;2024-03-08T06:32:30;99758.00;;;7.22;100.00
48652;BME280;34442;52.362;-1.302;2024-03-08T06:34:59;99769.88;;;7.13;100.00
48652;BME280;34442;52.362;-1.302;2024-03-08T06:37:25;99771.75;;;7.19;100.00
48652;BME280;34442;52.362;-1.302;2024-03-08T06:39:50;99770.53;;;7.28;100.00
48652;BME280;34442;52.362;-1.302;2024-03-08T06:42:20;99764.78;;;7.25;100.00
48652;BME280;34442;52.362;-1.302;2024-03-08T06:44:45;99763.50;;;7.14;100.00
48652;BME280;34442;52.362;-1.302;2024-03-08T06:47:17;99761.19;;;6.97;100.00
48652;BME280;34442;52.362;-1.302;2024-03-08T06:49:43;99755.31;;;7.22;100.00
48652;BME280;34442;52.362;-1.302;2024-03-08T06:52:09;99767.28;;;6.85;100.00
48652;BME280;34442;52.362;-1.302;2024-03-08T06:54:35;99755.16;;;7.37;100.00
48652;BME280;34442;52.362;-1.302;2024-03-08T06:57:02;99762.09;;;6.77;100.00
48652;BME280;34442;52.362;-1.302;2024-03-08T06:59:28;99753.44;;;6.75;100.00
48652;BME280;34442;52.362;-1.302;2024-03-08T07:01:54;99762.22;;;6.96;100.00
48652;BME280;34442;52.362;-1.302;2024-03-08T07:04:19;99757.03;;;6.88;100.00
48652;BME280;34442;52.362;-1.302;2024-03-08T07:06:47;99751.63;;;6.82;100.00
48652;BME280;34442;52.362;-1.302;2024-03-08T07:09:15;99755.00;;;6.56;100.00
48652;BME280;34442;52.362;-1.302;2024-03-08T07:11:42;99745.88;;;6.78;100.00
48652;BME280;34442;52.362;-1.302;2024-03-08T07:14:08;99738.59;;;7.07;100.00
48652;BME280;34442;52.362;-1.302;2024-03-08T07:16:34;99739.84;;;6.63;100.00
48652;BME280;34442;52.362;-1.302;2024-03-08T07:19:01;99742.53;;;7.11;100.00
48652;BME280;34442;52.362;-1.302;2024-03-08T07:21:26;99740.94;;;7.30;100.00
48652;BME280;34442;52.362;-1.302;2024-03-08T07:23:52;99738.91;;;7.38;100.00
48652;BME280;34442;52.362;-1.302;2024-03-08T07:26:46;99745.78;;;7.00;100.00
48652;BME280;34442;52.362;-1.302;2024-03-08T07:29:15;99741.25;;;7.00;100.00
48652;BME280;34442;52.362;-1.302;2024-03-08T07:31:41;99754.03;;;7.11;100.00
48652;BME280;34442;52.362;-1.302;2024-03-08T07:34:06;99741.81;;;7.57;100.00
48652;BME280;34442;52.362;-1.302;2024-03-08T07:36:33;99740.13;;;7.29;100.00
48652;BME280;34442;52.362;-1.302;2024-03-08T07:39:00;99739.44;;;6.66;100.00
48652;BME280;34442;52.362;-1.302;2024-03-08T07:41:25;99722.97;;;6.62;100.00
48652;BME280;34442;52.362;-1.302;2024-03-08T07:43:51;99730.03;;;7.25;100.00
48652;BME280;34442;52.362;-1.302;2024-03-08T07:46:17;99726.59;;;7.37;100.00
48652;BME280;34442;52.362;-1.302;2024-03-08T07:48:44;99724.31;;;7.47;100.00
48652;BME280;34442;52.362;-1.302;2024-03-08T07:51:10;99720.72;;;7.01;100.00
48652;BME280;34442;52.362;-1.302;2024-03-08T07:53:37;99720.50;;;7.02;100.00
48652;BME280;34442;52.362;-1.302;2024-03-08T07:56:04;99726.31;;;7.19;100.00
48652;BME280;34442;52.362;-1.302;2024-03-08T07:58:30;99723.84;;;7.17;100.00
48652;BME280;34442;52.362;-1.302;2024-03-08T08:00:56;99713.72;;;7.00;100.00
48652;BME280;34442;52.362;-1.302;2024-03-08T08:03:21;99713.69;;;6.52;100.00
48652;BME280;34442;52.362;-1.302;2024-03-08T08:05:47;99717.59;;;6.56;100.00
48652;BME280;34442;52.362;-1.302;2024-03-08T08:08:14;99707.38;;;6.66;100.00
48652;BME280;34442;52.362;-1.302;2024-03-08T08:10:40;99709.28;;;6.79;100.00
48652;BME280;34442;52.362;-1.302;2024-03-08T08:13:06;99704.88;;;6.58;100.00
48652;BME280;34442;52.362;-1.302;2024-03-08T08:15:31;99700.25;;;7.41;100.00
48652;BME280;34442;52.362;-1.302;2024-03-08T08:17:59;99696.75;;;7.47;100.00
48652;BME280;34442;52.362;-1.302;2024-03-08T08:20:25;99705.38;;;7.29;100.00
48652;BME280;34442;52.362;-1.302;2024-03-08T08:22:53;99697.16;;;7.37;100.00
48652;BME280;34442;52.362;-1.302;2024-03-08T08:25:20;99703.31;;;7.44;100.00
48652;BME280;34442;52.362;-1.302;2024-03-08T08:27:46;99692.06;;;7.69;100.00
48652;BME280;34442;52.362;-1.302;2024-03-08T08:30:12;99685.78;;;7.15;100.00
48652;BME280;34442;52.362;-1.302;2024-03-08T08:32:39;99680.09;;;7.52;100.00
48652;BME280;34442;52.362;-1.302;2024-03-08T08:35:05;99682.59;;;7.60;100.00
48652;BME280;34442;52.362;-1.302;2024-03-08T08:37:31;99673.72;;;7.39;100.00
48652;BME280;34442;52.362;-1.302;2024-03-08T08:39:57;99676.19;;;7.41;100.00
48652;BME280;34442;52.362;-1.302;2024-03-08T08:42:23;99683.41;;;7.54;100.00
48652;BME280;34442;52.362;-1.302;2024-03-08T08:44:49;99669.00;;;7.41;100.00
48652;BME280;34442;52.362;-1.302;2024-03-08T08:47:16;99673.91;;;7.44;100.00
48652;BME280;34442;52.362;-1.302;2024-03-08T08:49:45;99671.28;;;7.58;100.00
48652;BME280;34442;52.362;-1.302;2024-03-08T08:52:14;99677.84;;;7.88;100.00
48652;BME280;34442;52.362;-1.302;2024-03-08T08:54:42;99674.94;;;7.43;100.00
48652;BME280;34442;52.362;-1.302;2024-03-08T08:57:08;99677.63;;;8.10;100.00
48652;BME280;34442;52.362;-1.302;2024-03-08T08:59:36;99679.06;;;8.26;100.00
48652;BME280;34442;52.362;-1.302;2024-03-08T09:02:02;99682.81;;;7.91;100.00
48652;BME280;34442;52.362;-1.302;2024-03-08T09:04:29;99671.84;;;7.40;100.00
48652;BME280;34442;52.362;-1.302;2024-03-08T09:06:56;99683.22;;;7.75;100.00
48652;BME280;34442;52.362;-1.302;2024-03-08T09:09:22;99670.88;;;7.54;100.00
48652;BME280;34442;52.362;-1.302;2024-03-08T09:11:47;99664.88;;;7.52;100.00
48652;BME280;34442;52.362;-1.302;2024-03-08T09:14:14;99664.63;;;7.27;100.00
48652;BME280;34442;52.362;-1.302;2024-03-08T09:16:40;99662.63;;;7.42;100.00
48652;BME280;34442;52.362;-1.302;2024-03-08T09:19:06;99664.81;;;7.19;100.00
48652;BME280;34442;52.362;-1.302;2024-03-08T09:21:33;99657.69;;;7.72;100.00
48652;BME280;34442;52.362;-1.302;2024-03-08T09:24:00;99657.69;;;7.72;100.00
48652;BME280;34442;52.362;-1.302;2024-03-08T09:26:25;99647.41;;;7.56;100.00
48652;BME280;34442;52.362;-1.302;2024-03-08T09:28:52;99646.97;;;8.12;100.00
48652;BME280;34442;52.362;-1.302;2024-03-08T09:31:17;99636.50;;;7.71;100.00
48652;BME280;34442;52.362;-1.302;2024-03-08T09:33:42;99623.72;;;7.40;100.00
48652;BME280;34442;52.362;-1.302;2024-03-08T09:36:08;99628.66;;;7.30;100.00
48652;BME280;34442;52.362;-1.302;2024-03-08T09:38:33;99624.97;;;7.77;100.00
48652;BME280;34442;52.362;-1.302;2024-03-08T09:41:02;99626.59;;;8.11;100.00
48652;BME280;34442;52.362;-1.302;2024-03-08T09:43:29;99614.25;;;7.84;100.00
48652;BME280;34442;52.362;-1.302;2024-03-08T09:45:56;99617.50;;;8.06;100.00
48652;BME280;34442;52.362;-1.302;2024-03-08T09:48:22;99617.50;;;8.12;100.00
48652;BME280;34442;52.362;-1.302;2024-03-08T09:50:48;99621.88;;;7.80;100.00
48652;BME280;34442;52.362;-1.302;2024-03-08T09:53:14;99612.59;;;8.03;100.00
48652;BME280;34442;52.362;-1.302;2024-03-08T09:55:40;99615.50;;;7.94;100.00
48652;BME280;34442;52.362;-1.302;2024-03-08T09:58:12;99606.06;;;7.59;100.00
48652;BME280;34442;52.362;-1.302;2024-03-08T10:00:47;99599.88;;;7.78;100.00
48652;BME280;34442;52.362;-1.302;2024-03-08T10:03:13;99594.47;;;7.98;100.00
48652;BME280;34442;52.362;-1.302;2024-03-08T10:05:41;99599.19;;;8.09;100.00
48652;BME280;34442;52.362;-1.302;2024-03-08T10:08:06;99602.31;;;7.73;100.00
48652;BME280;34442;52.362;-1.302;2024-03-08T10:10:35;99591.03;;;7.58;100.00
48652;BME280;34442;52.362;-1.302;2024-03-08T10:13:01;99583.16;;;7.96;100.00
48652;BME280;34442;52.362;-1.302;2024-03-08T10:15:27;99584.38;;;7.93;100.00
48652;BME280;34442;52.362;-1.302;2024-03-08T10:17:58;99593.69;;;7.78;100.00
48652;BME280;34442;52.362;-1.302;2024-03-08T10:20:23;99581.31;;;7.96;100.00
48652;BME280;34442;52.362;-1.302;2024-03-08T10:22:49;99576.50;;;8.18;100.00
48652;BME280;34442;52.362;-1.302;2024-03-08T10:25:15;99576.88;;;8.42;100.00
48652;BME280;34442;52.362;-1.302;2024-03-08T10:27:41;99575.13;;;7.89;100.00
48652;BME280;34442;52.362;-1.302;2024-03-08T10:30:15;99573.13;;;7.71;100.00
48652;BME280;34442;52.362;-1.302;2024-03-08T10:32:41;99559.22;;;8.14;100.00
48652;BME280;34442;52.362;-1.302;2024-03-08T10:35:07;99569.38;;;7.86;100.00
48652;BME280;34442;52.362;-1.302;2024-03-08T10:37:39;99567.22;;;8.21;100.00
48652;BME280;34442;52.362;-1.302;2024-03-08T10:40:09;99553.00;;;8.27;100.00
48652;BME280;34442;52.362;-1.302;2024-03-08T10:42:47;99557.41;;;8.08;100.00
48652;BME280;34442;52.362;-1.302;2024-03-08T10:45:26;99553.63;;;8.29;100.00
48652;BME280;34442;52.362;-1.302;2024-03-08T10:50:41;99553.19;;;8.39;100.00
48652;BME280;34442;52.362;-1.302;2024-03-08T10:53:11;99541.69;;;8.18;100.00
48652;BME280;34442;52.362;-1.302;2024-03-08T10:55:36;99540.97;;;7.91;100.00
48652;BME280;34442;52.362;-1.302;2024-03-08T10:58:06;99540.00;;;8.44;100.00
48652;BME280;34442;52.362;-1.302;2024-03-08T11:00:34;99538.47;;;8.03;100.00
48652;BME280;34442;52.362;-1.302;2024-03-08T11:03:00;99538.41;;;8.23;100.00
48652;BME280;34442;52.362;-1.302;2024-03-08T11:05:41;99531.63;;;8.14;100.00
48652;BME280;34442;52.362;-1.302;2024-03-08T11:08:18;99530.38;;;8.23;100.00
48652;BME280;34442;52.362;-1.302;2024-03-08T11:10:50;99526.41;;;8.39;100.00
48652;BME280;34442;52.362;-1.302;2024-03-08T11:16:02;99514.81;;;8.83;100.00
48652;BME280;34442;52.362;-1.302;2024-03-08T11:18:33;99514.06;;;8.38;100.00
48652;BME280;34442;52.362;-1.302;2024-03-08T11:21:02;99500.22;;;8.48;100.00
48652;BME280;34442;52.362;-1.302;2024-03-08T11:23:32;99509.09;;;8.35;100.00
48652;BME280;34442;52.362;-1.302;2024-03-08T11:25:59;99484.16;;;8.34;100.00
48652;BME280;34442;52.362;-1.302;2024-03-08T11:28:25;99489.66;;;8.08;100.00
48652;BME280;34442;52.362;-1.302;2024-03-08T11:33:31;99480.53;;;9.17;100.00
48652;BME280;34442;52.362;-1.302;2024-03-08T11:38:29;99479.69;;;8.66;100.00
48652;BME280;34442;52.362;-1.302;2024-03-08T11:40:56;99471.94;;;8.52;100.00
48652;BME280;34442;52.362;-1.302;2024-03-08T11:43:22;99474.00;;;8.11;100.00
48652;BME280;34442;52.362;-1.302;2024-03-08T11:45:47;99458.75;;;8.57;100.00
48652;BME280;34442;52.362;-1.302;2024-03-08T11:48:13;99455.53;;;8.35;100.00
48652;BME280;34442;52.362;-1.302;2024-03-08T11:50:39;99455.53;;;8.35;100.00
48652;BME280;34442;52.362;-1.302;2024-03-08T11:53:06;99452.50;;;8.88;100.00
48652;BME280;34442;52.362;-1.302;2024-03-08T11:55:32;99451.44;;;8.95;100.00
48652;BME280;34442;52.362;-1.302;2024-03-08T11:58:05;99449.34;;;8.73;100.00
48652;BME280;34442;52.362;-1.302;2024-03-08T12:00:33;99441.38;;;7.83;100.00
48652;BME280;34442;52.362;-1.302;2024-03-08T12:05:29;99443.13;;;8.09;100.00
48652;BME280;34442;52.362;-1.302;2024-03-08T12:08:00;99452.38;;;8.51;100.00
48652;BME280;34442;52.362;-1.302;2024-03-08T12:10:29;99433.84;;;8.81;100.00
48652;BME280;34442;52.362;-1.302;2024-03-08T12:12:57;99421.63;;;8.22;100.00
48652;BME280;34442;52.362;-1.302;2024-03-08T12:15:25;99424.59;;;8.77;100.00
48652;BME280;34442;52.362;-1.302;2024-03-08T12:17:52;99433.34;;;8.28;100.00
48652;BME280;34442;52.362;-1.302;2024-03-08T12:20:20;99416.06;;;8.24;100.00
48652;BME280;34442;52.362;-1.302;2024-03-08T12:22:50;99412.47;;;8.36;100.00
48652;BME280;34442;52.362;-1.302;2024-03-08T12:25:18;99408.50;;;8.52;100.00
48652;BME280;34442;52.362;-1.302;2024-03-08T12:27:45;99404.56;;;8.80;100.00
48652;BME280;34442;52.362;-1.302;2024-03-08T12:30:23;99401.31;;;8.71;100.00
48652;BME280;34442;52.362;-1.302;2024-03-08T12:32:57;99392.03;;;8.74;100.00
48652;BME280;34442;52.362;-1.302;2024-03-08T12:35:24;99394.59;;;8.37;100.00
48652;BME280;34442;52.362;-1.302;2024-03-08T12:37:53;99389.53;;;8.54;100.00
48652;BME280;34442;52.362;-1.302;2024-03-08T12:40:25;99381.38;;;8.67;100.00
48652;BME280;34442;52.362;-1.302;2024-03-08T12:42:52;99372.81;;;8.52;100.00
48652;BME280;34442;52.362;-1.302;2024-03-08T12:45:17;99372.50;;;8.41;100.00
48652;BME280;34442;52.362;-1.302;2024-03-08T12:47:43;99360.75;;;9.11;100.00
48652;BME280;34442;52.362;-1.302;2024-03-08T12:50:10;99356.13;;;8.81;100.00
48652;BME280;34442;52.362;-1.302;2024-03-08T12:52:35;99370.88;;;8.90;100.00
48652;BME280;34442;52.362;-1.302;2024-03-08T12:55:02;99355.88;;;8.83;100.00
48652;BME280;34442;52.362;-1.302;2024-03-08T12:57:28;99356.50;;;9.03;100.00
48652;BME280;34442;52.362;-1.302;2024-03-08T12:59:53;99359.31;;;8.90;100.00